Time;durP1;ratioP1;P1;durP2;ratioP2;P2;SDS_P1;SDS_P2;PMS_P1;PMS_P2;Temp;Humidity;BMP_temperature;BMP_pressure;BME280_temperature;BME280_humidity;BME280_pressure;Samples;Min_cycle;Max_cycle;Signal;HPM_P1;HPM_P2
2023/09/05 00:00:10;;;;;;;10.90;9.48;;;16.50;99.90;;;;;;5073898;28;20406;-75
2023/09/05 00:02:40;;;;;;;11.43;9.50;;;16.20;99.90;;;;;;5091123;28;20804;-75
2023/09/05 00:05:08;;;;;;;11.05;8.98;;;16.40;99.90;;;;;;5090908;28;20405;-75
2023/09/05 00:07:38;;;;;;;11.57;9.75;;;16.30;99.90;;;;;;5090552;28;20401;-75
2023/09/05 00:10:05;;;;;;;10.45;9.35;;;16.10;99.90;;;;;;5090832;28;20437;-75
2023/09/05 00:12:31;;;;;;;13.15;9.10;;;16.40;99.90;;;;;;5126023;27;20483;-76
2023/09/05 00:14:58;;;;;;;10.73;9.00;;;16.30;99.90;;;;;;5077972;28;20973;-75
2023/09/05 00:17:24;;;;;;;12.07;9.30;;;16.10;99.90;;;;;;5111939;28;20398;-76
2023/09/05 00:19:51;;;;;;;11.63;9.40;;;16.00;99.90;;;;;;5096440;28;20398;-75
2023/09/05 00:22:20;;;;;;;12.43;9.38;;;16.40;99.90;;;;;;5111683;28;20414;-76
2023/09/05 00:24:46;;;;;;;12.15;9.13;;;16.20;99.90;;;;;;5094470;28;20402;-75
2023/09/05 00:27:12;;;;;;;11.33;9.00;;;16.20;99.90;;;;;;5094605;28;20406;-76
2023/09/05 00:29:42;;;;;;;9.77;8.65;;;16.20;99.90;;;;;;5094837;28;20409;-76
2023/09/05 00:32:09;;;;;;;10.80;9.07;;;16.10;99.90;;;;;;5094555;28;20422;-76
2023/09/05 00:34:37;;;;;;;10.07;8.93;;;16.20;99.90;;;;;;5129013;27;20499;-76
2023/09/05 00:37:08;;;;;;;12.32;8.73;;;16.20;99.90;;;;;;5077793;28;20540;-76
2023/09/05 00:39:35;;;;;;;12.98;9.68;;;16.10;99.90;;;;;;5094459;28;20520;-75
2023/09/05 00:42:03;;;;;;;12.57;9.50;;;16.10;99.90;;;;;;5093791;28;20673;-76
2023/09/05 00:44:29;;;;;;;11.98;9.63;;;16.10;99.90;;;;;;5111479;28;20766;-75
2023/09/05 00:46:58;;;;;;;12.30;10.18;;;15.90;99.90;;;;;;5094400;28;20753;-75
2023/09/05 00:49:27;;;;;;;11.90;9.33;;;16.00;99.90;;;;;;5110535;28;20409;-75
2023/09/05 00:51:57;;;;;;;13.15;9.90;;;16.00;99.90;;;;;;5128426;27;20459;-76
2023/09/05 00:54:23;;;;;;;12.23;9.98;;;15.80;99.90;;;;;;5128587;27;20417;-76
2023/09/05 00:56:49;;;;;;;13.07;10.10;;;15.80;99.90;;;;;;5110797;28;20572;-74
2023/09/05 00:59:16;;;;;;;14.60;10.27;;;15.90;99.90;;;;;;5094373;28;20550;-75
2023/09/05 01:01:42;;;;;;;12.75;9.65;;;15.70;99.90;;;;;;5128380;27;20382;-74
2023/09/05 01:04:08;;;;;;;12.50;10.52;;;15.60;99.90;;;;;;5094113;28;20402;-74
2023/09/05 01:06:59;;;;;;;12.93;9.73;;;15.60;99.90;;;;;;5128285;27;20485;-74
2023/09/05 01:09:47;;;;;;;14.13;10.02;;;15.80;99.90;;;;;;5077177;28;20402;-76
2023/09/05 01:12:14;;;;;;;11.77;10.10;;;15.70;99.90;;;;;;5094071;28;20940;-75
2023/09/05 01:14:40;;;;;;;14.45;10.60;;;15.80;99.90;;;;;;5128702;27;20481;-76
2023/09/05 01:17:06;;;;;;;13.60;10.40;;;15.70;99.90;;;;;;5127951;27;20472;-75
2023/09/05 01:19:36;;;;;;;13.55;11.13;;;15.60;99.90;;;;;;5127832;27;20398;-75
2023/09/05 01:22:07;;;;;;;12.90;11.35;;;15.60;99.90;;;;;;5128208;27;20401;-75
2023/09/05 01:24:35;;;;;;;13.73;11.20;;;15.60;99.90;;;;;;5126923;27;20485;-75
2023/09/05 01:27:03;;;;;;;13.57;11.10;;;15.80;99.90;;;;;;5110178;28;20468;-72
2023/09/05 01:29:35;;;;;;;13.55;11.23;;;15.50;99.90;;;;;;5093654;28;20760;-76
2023/09/05 01:32:11;;;;;;;14.63;11.23;;;15.40;99.90;;;;;;5127437;27;20754;-75
2023/09/05 01:34:38;;;;;;;15.05;11.57;;;15.60;99.90;;;;;;5109838;28;20491;-76
2023/09/05 01:37:04;;;;;;;13.93;11.67;;;15.50;99.90;;;;;;5128195;27;20432;-75
2023/09/05 01:39:30;;;;;;;13.27;11.80;;;15.40;99.90;;;;;;5128250;27;20459;-76
2023/09/05 01:41:58;;;;;;;14.05;11.52;;;15.50;99.90;;;;;;5093906;28;20401;-76
2023/09/05 01:44:24;;;;;;;14.68;11.70;;;15.30;99.90;;;;;;5094311;28;20408;-75
2023/09/05 01:46:50;;;;;;;15.63;12.13;;;15.30;99.90;;;;;;5111752;28;20750;-75
2023/09/05 01:49:16;;;;;;;16.17;11.70;;;15.20;99.90;;;;;;5127980;27;20402;-75
2023/09/05 01:51:43;;;;;;;14.27;11.23;;;15.30;99.90;;;;;;5110434;28;20433;-74
2023/09/05 01:54:09;;;;;;;13.07;10.57;;;15.30;99.90;;;;;;5110995;28;20459;-75
2023/09/05 01:56:34;;;;;;;14.07;10.87;;;15.30;99.90;;;;;;5127234;27;20414;-75
2023/09/05 01:59:00;;;;;;;13.60;10.80;;;15.30;99.90;;;;;;5127651;27;20497;-74
2023/09/05 02:01:27;;;;;;;13.65;10.55;;;15.40;99.90;;;;;;5093020;28;20413;-76
2023/09/05 02:03:54;;;;;;;14.80;11.57;;;15.30;99.90;;;;;;5127709;27;20412;-75
2023/09/05 02:06:19;;;;;;;13.57;11.50;;;15.20;99.90;;;;;;5128059;27;20463;-74
2023/09/05 02:08:46;;;;;;;13.97;11.67;;;15.30;99.90;;;;;;5110505;28;20881;-75
2023/09/05 02:11:12;;;;;;;13.73;11.73;;;15.10;99.90;;;;;;5109951;28;20786;-75
2023/09/05 02:13:37;;;;;;;14.18;11.52;;;15.10;99.90;;;;;;5109667;28;20402;-75
2023/09/05 02:16:03;;;;;;;16.52;11.68;;;15.00;99.90;;;;;;5109859;28;20434;-75
2023/09/05 02:18:29;;;;;;;14.57;11.57;;;15.00;99.90;;;;;;5109553;28;20398;-75
2023/09/05 02:21:01;;;;;;;15.13;11.43;;;15.00;99.90;;;;;;5109592;28;20398;-75
2023/09/05 02:23:27;;;;;;;14.70;11.52;;;14.90;99.90;;;;;;5109056;28;20429;-75
2023/09/05 02:26:01;;;;;;;12.95;10.82;;;15.00;99.90;;;;;;5109046;28;20402;-75
2023/09/05 02:28:27;;;;;;;13.38;11.10;;;14.90;99.90;;;;;;5126110;27;20394;-75
2023/09/05 02:30:54;;;;;;;14.10;11.13;;;14.90;99.90;;;;;;5126180;27;20500;-76
2023/09/05 02:33:20;;;;;;;14.18;10.88;;;14.90;99.90;;;;;;5092734;28;20448;-75
2023/09/05 02:35:47;;;;;;;14.25;10.75;;;15.00;99.90;;;;;;5109030;28;20405;-75
2023/09/05 02:38:13;;;;;;;14.85;10.90;;;15.10;99.90;;;;;;5092229;28;20401;-76
2023/09/05 02:40:49;;;;;;;16.13;11.40;;;14.90;99.90;;;;;;5126166;27;20394;-76
2023/09/05 02:43:14;;;;;;;13.10;10.80;;;14.90;99.90;;;;;;5125933;27;20394;-75
2023/09/05 02:45:40;;;;;;;15.68;11.52;;;15.10;99.90;;;;;;5126167;27;20406;-76
2023/09/05 02:48:07;;;;;;;13.38;11.23;;;14.80;99.90;;;;;;5109066;28;20402;-75
2023/09/05 02:50:33;;;;;;;13.07;11.20;;;14.80;99.90;;;;;;5074893;28;20413;-76
2023/09/05 02:52:58;;;;;;;14.80;11.85;;;14.90;99.90;;;;;;5092475;28;20402;-76
2023/09/05 02:55:24;;;;;;;16.02;12.38;;;15.00;99.90;;;;;;5125571;27;20829;-75
2023/09/05 02:57:50;;;;;;;13.17;11.67;;;14.50;99.90;;;;;;5125315;27;20408;-76
2023/09/05 03:00:19;;;;;;;14.13;11.80;;;14.60;99.90;;;;;;5075014;28;20800;-75
2023/09/05 03:02:45;;;;;;;15.73;12.05;;;14.60;99.90;;;;;;5108301;28;20445;-75
2023/09/05 03:05:13;;;;;;;15.50;12.25;;;14.60;99.90;;;;;;5108337;28;20397;-74
2023/09/05 03:07:39;;;;;;;14.95;12.57;;;14.60;99.90;;;;;;5091520;28;20413;-75
2023/09/05 03:10:05;;;;;;;14.70;12.05;;;14.60;99.90;;;;;;5108204;28;20406;-74
2023/09/05 03:12:31;;;;;;;17.27;12.00;;;14.40;99.90;;;;;;5108142;28;20418;-75
2023/09/05 03:14:57;;;;;;;15.05;13.00;;;14.60;99.90;;;;;;5108553;28;20398;-75
2023/09/05 03:17:23;;;;;;;15.93;13.10;;;14.50;99.90;;;;;;5092230;28;20874;-75
2023/09/05 03:19:49;;;;;;;15.87;12.80;;;14.60;99.90;;;;;;5125264;27;20427;-75
2023/09/05 03:22:14;;;;;;;17.00;12.60;;;14.60;99.90;;;;;;5091104;28;20398;-75
2023/09/05 03:24:40;;;;;;;15.20;12.60;;;;;;;;;;5107714;28;20421;-75
2023/09/05 03:27:06;;;;;;;15.35;12.73;;;14.50;99.90;;;;;;5107761;28;20989;-75
2023/09/05 03:29:32;;;;;;;15.10;12.70;;;14.70;99.90;;;;;;5124726;27;20409;-75
2023/09/05 03:31:57;;;;;;;18.00;12.80;;;14.70;99.90;;;;;;5107631;28;20429;-75
2023/09/05 03:34:23;;;;;;;15.48;13.10;;;14.50;99.90;;;;;;5109153;28;20488;-84
2023/09/05 03:36:49;;;;;;;15.60;12.45;;;14.50;99.90;;;;;;5091418;28;20406;-83
2023/09/05 03:39:16;;;;;;;16.17;12.48;;;14.70;99.90;;;;;;5108894;28;20416;-84
2023/09/05 03:41:41;;;;;;;15.45;12.40;;;14.70;99.90;;;;;;5126352;27;20402;-84
2023/09/05 03:44:08;;;;;;;15.15;11.73;;;14.60;99.90;;;;;;5093374;28;20405;-83
2023/09/05 03:46:34;;;;;;;14.50;12.03;;;14.60;99.90;;;;;;5130495;28;20424;-83
2023/09/05 03:48:59;;;;;;;13.60;10.85;;;14.80;99.90;;;;;;5110103;28;20476;-75
2023/09/05 03:51:27;;;;;;;15.90;12.32;;;14.60;99.90;;;;;;5093200;28;20414;-75
2023/09/05 03:53:53;;;;;;;16.43;12.10;;;14.60;99.90;;;;;;5125497;28;20398;-75
2023/09/05 03:56:19;;;;;;;16.43;12.40;;;14.70;99.90;;;;;;5124664;27;20413;-75
2023/09/05 03:58:45;;;;;;;14.98;11.57;;;14.60;99.90;;;;;;5108283;28;20788;-75
2023/09/05 04:01:15;;;;;;;14.80;12.80;;;14.70;99.90;;;;;;5124989;27;20429;-75
2023/09/05 04:03:40;;;;;;;15.67;11.50;;;14.60;99.90;;;;;;5125603;28;20762;-74
2023/09/05 04:06:06;;;;;;;14.97;12.10;;;14.50;99.90;;;;;;5125617;28;20398;-75
2023/09/05 04:08:32;;;;;;;15.02;12.38;;;14.50;99.90;;;;;;5108296;28;20472;-74
2023/09/05 04:10:59;;;;;;;18.95;12.93;;;14.30;99.90;;;;;;5091147;28;20463;-74
2023/09/05 04:13:26;;;;;;;14.98;12.60;;;14.30;99.90;;;;;;5107557;28;20420;-75
2023/09/05 04:15:52;;;;;;;17.57;12.97;;;;;;;;;;5125365;27;20488;-75
2023/09/05 04:18:18;;;;;;;17.73;12.60;;;14.30;99.90;;;;;;5091227;28;20792;-74
2023/09/05 04:20:44;;;;;;;16.90;13.70;;;14.20;99.90;;;;;;5125777;28;20398;-75
2023/09/05 04:23:10;;;;;;;17.10;13.10;;;14.00;99.90;;;;;;5125417;27;20437;-74
2023/09/05 04:25:39;;;;;;;15.88;12.82;;;14.00;99.90;;;;;;5108375;28;20908;-74
2023/09/05 04:28:06;;;;;;;16.53;12.93;;;13.90;99.90;;;;;;5125189;28;20881;-74
2023/09/05 04:30:35;;;;;;;19.08;13.32;;;14.00;99.90;;;;;;5124836;28;20467;-75
2023/09/05 04:33:06;;;;;;;18.05;14.85;;;14.00;99.90;;;;;;5124916;27;20398;-75
2023/09/05 04:35:32;;;;;;;17.38;13.57;;;14.00;99.90;;;;;;5124917;28;20409;-75
2023/09/05 04:37:58;;;;;;;16.15;14.43;;;14.00;99.90;;;;;;5090537;28;20402;-75
2023/09/05 04:40:23;;;;;;;17.70;14.40;;;14.10;99.90;;;;;;5124412;28;20394;-75
2023/09/05 04:42:49;;;;;;;17.60;13.73;;;14.00;99.90;;;;;;5090260;28;20402;-75
2023/09/05 04:45:15;;;;;;;17.60;14.00;;;;;;;;;;5107512;28;20567;-75
2023/09/05 04:47:41;;;;;;;16.00;13.90;;;14.00;99.90;;;;;;5090127;28;20406;-76
2023/09/05 04:50:10;;;;;;;18.13;14.50;;;14.00;99.90;;;;;;5090571;28;20465;-76
2023/09/05 04:52:36;;;;;;;19.55;15.32;;;14.00;99.90;;;;;;5073418;28;20426;-76
2023/09/05 04:55:01;;;;;;;19.10;14.85;;;14.00;99.90;;;;;;5107759;28;20872;-76
2023/09/05 04:57:28;;;;;;;21.33;15.80;;;14.20;99.90;;;;;;5089940;28;20411;-76
2023/09/05 04:59:57;;;;;;;19.33;14.67;;;;;;;;;;5092107;28;20781;-76
2023/09/05 05:02:24;;;;;;;17.85;14.75;;;13.90;99.90;;;;;;5093866;28;20406;-76
2023/09/05 05:04:50;;;;;;;17.25;14.20;;;14.00;99.90;;;;;;5128389;27;20750;-75
2023/09/05 05:07:16;;;;;;;16.92;14.55;;;14.10;99.90;;;;;;5127809;27;20402;-76
2023/09/05 05:09:42;;;;;;;18.60;14.50;;;14.10;99.90;;;;;;5110556;28;20402;-76
2023/09/05 05:12:08;;;;;;;17.92;14.27;;;14.10;99.90;;;;;;5093525;28;20463;-76
2023/09/05 05:14:35;;;;;;;16.83;14.45;;;14.10;99.90;;;;;;5110744;28;20394;-76
2023/09/05 05:17:01;;;;;;;17.30;14.40;;;14.10;99.90;;;;;;5110727;28;20402;-76
2023/09/05 05:19:27;;;;;;;17.02;14.43;;;14.10;99.90;;;;;;5127791;27;20942;-76
2023/09/05 05:21:53;;;;;;;18.23;14.63;;;14.00;99.90;;;;;;5110720;28;20394;-76
2023/09/05 05:24:19;;;;;;;16.88;14.13;;;14.30;99.90;;;;;;5110705;28;20897;-76
2023/09/05 05:26:45;;;;;;;21.80;14.05;;;14.00;99.90;;;;;;5093624;28;20400;-76
2023/09/05 05:29:11;;;;;;;17.98;14.35;;;14.20;99.90;;;;;;5127692;27;20459;-76
2023/09/05 05:31:39;;;;;;;17.35;14.10;;;14.00;99.90;;;;;;5093479;28;20492;-76
2023/09/05 05:34:05;;;;;;;19.53;14.83;;;14.20;99.90;;;;;;5127336;27;20905;-76
2023/09/05 05:36:31;;;;;;;18.30;13.98;;;;;;;;;;5127833;27;20402;-76
2023/09/05 05:39:01;;;;;;;16.10;13.35;;;14.30;99.90;;;;;;5093493;28;20413;-76
2023/09/05 05:41:27;;;;;;;17.30;13.77;;;14.30;99.90;;;;;;5127706;27;20831;-76
2023/09/05 05:43:54;;;;;;;15.93;13.48;;;14.40;99.90;;;;;;5092842;28;20409;-76
2023/09/05 05:46:20;;;;;;;18.90;13.40;;;14.40;99.90;;;;;;5076710;28;20402;-76
2023/09/05 05:48:46;;;;;;;16.03;13.23;;;14.70;99.90;;;;;;5110156;28;20439;-76
2023/09/05 05:51:13;;;;;;;16.02;13.25;;;14.60;99.90;;;;;;5127321;27;20429;-77
2023/09/05 05:53:39;;;;;;;15.57;12.57;;;14.70;99.90;;;;;;5093228;28;20398;-76
2023/09/05 05:56:05;;;;;;;15.30;12.77;;;14.90;99.90;;;;;;5127173;27;20390;-76
2023/09/05 05:58:31;;;;;;;17.45;12.57;;;15.00;99.90;;;;;;5109158;28;20765;-76
2023/09/05 06:00:57;;;;;;;14.10;11.80;;;15.00;99.90;;;;;;5126943;27;20414;-76
2023/09/05 06:03:23;;;;;;;13.03;11.33;;;15.20;99.90;;;;;;5127091;27;20468;-76
2023/09/05 06:05:50;;;;;;;14.02;11.52;;;15.10;99.90;;;;;;5092782;28;20488;-76
2023/09/05 06:08:17;;;;;;;15.77;11.27;;;15.10;99.90;;;;;;5126925;27;20802;-76
2023/09/05 06:10:43;;;;;;;17.10;11.60;;;15.50;99.90;;;;;;5108725;28;20919;-76
2023/09/05 06:13:09;;;;;;;15.48;11.55;;;15.40;99.90;;;;;;5109410;28;20398;-76
2023/09/05 06:15:35;;;;;;;13.27;11.50;;;15.60;99.90;;;;;;5109694;28;20486;-76
2023/09/05 06:18:02;;;;;;;14.20;10.97;;;15.70;99.90;;;;;;5126873;27;20905;-76
2023/09/05 06:20:32;;;;;;;13.95;11.02;;;15.90;99.90;;;;;;5126693;27;20793;-76
2023/09/05 06:22:58;;;;;;;14.35;10.82;;;16.10;99.90;;;;;;5092470;28;20413;-76
2023/09/05 06:25:24;;;;;;;13.65;11.00;;;16.20;99.90;;;;;;5126468;27;20405;-77
2023/09/05 06:27:50;;;;;;;12.73;10.65;;;16.30;99.90;;;;;;5108924;28;20885;-76
2023/09/05 06:30:17;;;;;;;13.57;10.40;;;16.30;99.90;;;;;;5126294;27;20410;-77
2023/09/05 06:32:43;;;;;;;12.33;10.20;;;16.60;99.90;;;;;;5109269;28;20652;-77
2023/09/05 06:35:11;;;;;;;10.95;9.52;;;15.40;99.90;;;;;;5126034;27;20908;-77
2023/09/05 06:37:37;;;;;;;12.70;9.50;;;17.10;99.90;;;;;;5092060;28;20402;-77
2023/09/05 06:40:12;;;;;;;13.48;10.00;;;17.00;99.90;;;;;;5091990;28;20398;-76
2023/09/05 06:42:42;;;;;;;11.80;9.65;;;17.00;99.90;;;;;;5108083;28;20398;-77
2023/09/05 06:45:09;;;;;;;11.32;9.10;;;17.10;99.90;;;;;;5126263;27;20742;-76
2023/09/05 06:47:34;;;;;;;12.05;9.27;;;17.50;99.90;;;;;;5091822;28;20402;-77
2023/09/05 06:50:06;;;;;;;12.93;9.35;;;17.20;99.90;;;;;;5092193;28;20885;-76
2023/09/05 06:52:33;;;;;;;13.80;9.40;;;17.50;99.90;;;;;;5091603;28;20430;-76
2023/09/05 06:54:59;;;;;;;12.05;9.57;;;17.60;99.90;;;;;;5091879;28;20485;-78
2023/09/05 06:57:26;;;;;;;11.52;8.88;;;17.70;99.90;;;;;;5091610;28;20421;-77
2023/09/05 06:59:52;;;;;;;10.27;8.47;;;17.90;99.90;;;;;;5108782;28;20789;-76
2023/09/05 07:02:18;;;;;;;10.82;8.43;;;18.20;99.90;;;;;;5091360;28;20401;-76
2023/09/05 07:04:44;;;;;;;10.43;8.45;;;18.00;99.90;;;;;;5091405;28;20398;-77
2023/09/05 07:07:10;;;;;;;12.95;8.10;;;17.80;99.90;;;;;;5091585;28;20402;-77
2023/09/05 07:09:35;;;;;;;10.55;7.85;;;18.20;99.90;;;;;;5109327;28;20916;-76
2023/09/05 07:12:03;;;;;;;11.67;7.70;;;18.30;99.90;;;;;;5092043;28;20755;-76
2023/09/05 07:14:29;;;;;;;8.48;7.53;;;18.30;99.90;;;;;;5092488;28;20398;-77
2023/09/05 07:16:55;;;;;;;9.98;7.43;;;18.60;99.90;;;;;;5092402;28;20481;-76
2023/09/05 07:19:21;;;;;;;9.50;7.60;;;18.90;99.90;;;;;;5108845;28;20429;-76
2023/09/05 07:21:46;;;;;;;9.17;7.20;;;18.70;99.90;;;;;;5108004;28;20401;-77
2023/09/05 07:24:14;;;;;;;11.25;7.15;;;18.90;99.90;;;;;;5108514;28;20397;-76
2023/09/05 07:26:44;;;;;;;9.23;6.82;;;19.50;99.90;;;;;;5091515;28;20409;-76
2023/09/05 07:29:11;;;;;;;11.15;6.97;;;19.30;99.90;;;;;;5091205;28;20413;-76
2023/09/05 07:31:41;;;;;;;9.68;6.75;;;19.40;99.90;;;;;;5091009;28;20422;-77
2023/09/05 07:34:06;;;;;;;9.80;6.95;;;19.40;99.90;;;;;;5091080;28;20909;-76
2023/09/05 07:36:33;;;;;;;9.50;7.10;;;19.70;99.90;;;;;;5108069;28;20394;-76
2023/09/05 07:39:01;;;;;;;10.40;6.80;;;20.00;99.90;;;;;;5074354;28;20493;-77
2023/09/05 07:41:28;;;;;;;8.13;6.43;;;19.90;99.90;;;;;;5091347;28;20485;-76
2023/09/05 07:43:54;;;;;;;8.80;6.38;;;20.10;99.90;;;;;;5125487;27;20493;-76
2023/09/05 07:46:20;;;;;;;10.98;6.75;;;20.20;99.90;;;;;;5090835;28;20847;-75
2023/09/05 07:48:47;;;;;;;8.00;6.10;;;20.10;99.90;;;;;;5107974;28;20398;-76
2023/09/05 07:51:13;;;;;;;9.13;5.80;;;20.90;99.90;;;;;;5107675;28;20418;-76
2023/09/05 07:53:39;;;;;;;8.88;5.93;;;20.60;99.90;;;;;;5107680;28;20394;-76
2023/09/05 07:56:06;;;;;;;8.30;5.70;;;21.00;99.90;;;;;;5074199;28;20431;-76
2023/09/05 07:58:32;;;;;;;6.82;5.20;;;20.90;99.90;;;;;;5090714;28;20414;-76
2023/09/05 08:00:59;;;;;;;8.38;4.97;;;20.80;99.90;;;;;;5107634;28;20446;-77
2023/09/05 08:03:26;;;;;;;6.57;4.90;;;21.20;99.90;;;;;;5090937;28;20746;-76
2023/09/05 08:05:53;;;;;;;7.13;4.70;;;21.20;99.90;;;;;;5107774;28;20413;-75
2023/09/05 08:08:20;;;;;;;6.80;4.65;;;21.50;99.90;;;;;;5124573;27;20401;-76
2023/09/05 08:10:46;;;;;;;10.48;4.07;;;21.60;99.90;;;;;;5107621;28;20986;-76
2023/09/05 08:13:14;;;;;;;7.38;4.13;;;21.80;99.90;;;;;;5090491;28;20504;-76
2023/09/05 08:15:43;;;;;;;7.65;4.30;;;22.00;99.90;;;;;;5107024;28;20980;-76
2023/09/05 08:18:13;;;;;;;8.10;4.50;;;22.40;99.90;;;;;;5124746;28;20416;-75
2023/09/05 08:20:42;;;;;;;10.18;4.28;;;22.60;99.90;;;;;;5074143;28;20393;-76
2023/09/05 08:23:11;;;;;;;6.88;4.00;;;22.70;99.90;;;;;;5091224;28;20942;-75
2023/09/05 08:25:37;;;;;;;7.70;4.38;;;22.50;99.90;;;;;;5091091;28;20406;-76
2023/09/05 08:28:04;;;;;;;5.57;4.00;;;23.10;99.90;;;;;;5090715;28;20408;-76
2023/09/05 08:30:30;;;;;;;5.77;3.90;;;22.90;99.90;;;;;;5073833;28;20410;-75
2023/09/05 08:32:57;;;;;;;6.40;3.77;;;23.00;99.90;;;;;;5091537;28;20423;-75
2023/09/05 08:35:23;;;;;;;4.82;3.45;;;23.00;99.90;;;;;;5094960;28;20455;-76
2023/09/05 08:37:48;;;;;;;5.25;3.53;;;23.60;99.90;;;;;;5094954;28;20420;-75
2023/09/05 08:40:15;;;;;;;5.40;3.20;;;23.60;99.90;;;;;;5111585;28;20893;-75
2023/09/05 08:42:42;;;;;;;4.97;3.10;;;23.90;99.90;;;;;;5094244;28;20402;-76
2023/09/05 08:45:11;;;;;;;6.00;3.47;;;24.00;99.90;;;;;;5094356;28;20398;-76
2023/09/05 08:47:38;;;;;;;6.18;3.10;;;24.00;99.90;;;;;;5094705;28;20405;-75
2023/09/05 08:50:06;;;;;;;6.10;3.47;;;24.00;99.90;;;;;;5111307;28;20405;-76
2023/09/05 08:52:33;;;;;;;5.05;3.10;;;24.20;99.90;;;;;;5111410;28;20507;-76
2023/09/05 08:54:59;;;;;;;5.03;3.42;;;24.40;99.90;;;;;;5128226;27;21146;-76
2023/09/05 08:57:27;;;;;;;5.03;3.50;;;24.50;99.90;;;;;;5128263;27;20414;-76
2023/09/05 08:59:54;;;;;;;4.57;2.97;;;24.30;99.90;;;;;;5128133;27;20410;-75
2023/09/05 09:02:20;;;;;;;5.57;3.17;;;24.90;99.90;;;;;;5111150;28;20750;-76
2023/09/05 09:05:04;;;;;;;6.57;3.42;;;25.00;99.90;;;;;;5093506;28;20408;-76
2023/09/05 09:07:30;;;;;;;5.13;3.20;;;24.80;99.90;;;;;;5127398;27;20402;-77
2023/09/05 09:09:59;;;;;;;4.93;2.63;;;26.00;99.90;;;;;;5093428;28;20406;-77
2023/09/05 09:12:31;;;;;;;5.80;2.90;;;25.00;99.90;;;;;;5093315;28;20500;-77
2023/09/05 09:15:17;;;;;;;5.18;2.97;;;25.40;99.90;;;;;;5127505;27;20485;-76
2023/09/05 09:17:48;;;;;;;8.27;3.10;;;25.50;99.90;;;;;;5075983;28;20398;-76
2023/09/05 09:20:14;;;;;;;4.50;2.50;;;25.90;99.90;;;;;;5093193;28;20398;-76
2023/09/05 09:22:41;;;;;;;4.07;2.70;;;25.80;99.90;;;;;;5127568;27;20434;-76
2023/09/05 09:25:15;;;;;;;4.63;2.80;;;25.40;99.90;;;;;;5093096;28;20402;-76
2023/09/05 09:27:44;;;;;;;4.28;2.50;;;25.00;99.90;;;;;;5110195;28;20797;-75
2023/09/05 09:30:11;;;;;;;5.77;3.00;;;25.20;99.90;;;;;;5127193;27;20501;-75
2023/09/05 09:32:39;;;;;;;4.28;2.50;;;25.50;99.90;;;;;;5109560;28;20837;-75
2023/09/05 09:35:06;;;;;;;4.28;2.30;;;25.60;99.90;;;;;;5092981;28;20429;-76
2023/09/05 09:37:33;;;;;;;4.60;2.70;;;26.00;99.90;;;;;;5126952;27;20408;-75
2023/09/05 09:40:00;;;;;;;3.90;2.65;;;25.90;99.90;;;;;;5092735;28;20882;-75
2023/09/05 09:42:27;;;;;;;3.35;2.33;;;26.10;99.90;;;;;;5075787;28;20406;-76
2023/09/05 09:44:54;;;;;;;4.00;2.60;;;26.70;99.90;;;;;;5091663;28;20735;-76
2023/09/05 09:47:20;;;;;;;3.92;2.50;;;26.20;99.90;;;;;;5127476;27;20402;-76
2023/09/05 09:49:48;;;;;;;4.90;2.67;;;26.20;99.90;;;;;;5093088;28;20424;-76
2023/09/05 09:52:21;;;;;;;4.03;2.35;;;26.60;99.90;;;;;;5092940;28;20716;-76
2023/09/05 09:54:48;;;;;;;4.10;2.20;;;26.50;99.90;;;;;;5092530;28;20913;-75
2023/09/05 09:57:18;;;;;;;5.60;2.42;;;27.00;99.90;;;;;;5092457;28;20414;-75
2023/09/05 09:59:56;;;;;;;4.43;2.27;;;27.30;99.90;;;;;;5126725;27;20401;-75
2023/09/05 10:02:24;;;;;;;5.15;2.67;;;27.10;99.90;;;;;;5075807;28;20406;-77
2023/09/05 10:04:51;;;;;;;5.13;2.30;;;26.90;99.90;;;;;;5126477;27;20401;-76
2023/09/05 10:07:19;;;;;;;4.60;2.30;;;27.10;99.90;;;;;;5092759;28;20412;-75
2023/09/05 10:09:45;;;;;;;4.20;2.40;;;27.20;99.90;;;;;;5109311;28;20481;-76
2023/09/05 10:12:12;;;;;;;3.95;2.25;;;27.20;99.90;;;;;;5092565;28;20422;-76
2023/09/05 10:14:40;;;;;;;4.40;2.50;;;27.60;99.90;;;;;;5092917;28;20398;-76
2023/09/05 10:17:06;;;;;;;4.88;2.30;;;27.90;99.90;;;;;;5092794;28;20401;-75
2023/09/05 10:19:33;;;;;;;3.72;2.17;;;27.90;99.90;;;;;;5126685;27;20406;-75
2023/09/05 10:21:59;;;;;;;3.77;2.17;;;28.50;99.90;;;;;;5092480;28;20402;-75
2023/09/05 10:24:27;;;;;;;3.40;2.00;;;27.90;99.90;;;;;;5109723;28;20402;-75
2023/09/05 10:26:53;;;;;;;4.37;2.17;;;27.80;99.90;;;;;;5126575;27;20398;-75
2023/09/05 10:29:33;;;;;;;4.00;2.10;;;27.70;99.90;;;;;;5092225;28;20409;-75
2023/09/05 10:32:00;;;;;;;2.88;2.00;;;27.40;99.90;;;;;;5075659;28;20426;-75
2023/09/05 10:34:48;;;;;;;3.42;2.20;;;27.80;99.90;;;;;;5092254;28;20405;-75
2023/09/05 10:37:22;;;;;;;3.40;2.00;;;27.60;99.90;;;;;;5109324;28;20398;-76
2023/09/05 10:39:49;;;;;;;6.00;2.10;;;28.00;99.90;;;;;;5126331;27;20472;-75
2023/09/05 10:42:16;;;;;;;4.80;2.20;;;28.00;99.90;;;;;;5092479;28;20398;-75
2023/09/05 10:44:46;;;;;;;3.40;2.27;;;28.60;99.90;;;;;;5126247;27;20440;-76
2023/09/05 10:47:34;;;;;;;3.85;1.90;;;28.60;99.90;;;;;;5092322;28;20739;-75
2023/09/05 10:50:04;;;;;;;5.18;2.00;;;28.50;99.90;;;;;;5109317;28;20405;-75
2023/09/05 10:52:30;;;;;;;2.60;1.90;;;28.60;99.90;;;;;;5108771;28;20477;-76
2023/09/05 10:54:58;;;;;;;3.10;1.90;;;28.60;99.90;;;;;;5092181;28;20451;-76
2023/09/05 10:57:40;;;;;;;4.37;1.97;;;28.70;99.90;;;;;;5108135;28;20413;-76
2023/09/05 11:00:15;;;;;;;4.43;2.20;;;28.70;99.90;;;;;;5126029;27;20406;-75
2023/09/05 11:02:46;;;;;;;4.68;2.20;;;28.50;99.90;;;;;;5091926;28;20408;-76
2023/09/05 11:05:18;;;;;;;3.90;2.15;;;28.90;99.90;;;;;;5074749;28;20488;-75
2023/09/05 11:07:44;;;;;;;3.83;2.20;;;28.90;99.90;;;;;;5092088;28;20402;-75
2023/09/05 11:10:14;;;;;;;4.88;2.40;;;28.90;99.90;;;;;;5108491;28;20475;-75
2023/09/05 11:12:40;;;;;;;4.35;2.17;;;29.00;99.90;;;;;;5125114;27;20504;-76
2023/09/05 11:15:08;;;;;;;3.55;2.08;;;28.30;99.90;;;;;;5091230;28;20802;-75
2023/09/05 11:17:36;;;;;;;3.72;2.17;;;28.50;99.90;;;;;;5107795;28;20398;-75
2023/09/05 11:20:02;;;;;;;4.60;2.20;;;28.80;99.90;;;;;;5108062;28;20890;-76
2023/09/05 11:22:29;;;;;;;3.33;2.10;;;28.80;99.90;;;;;;5107950;28;20402;-75
2023/09/05 11:24:59;;;;;;;4.78;2.28;;;28.20;99.90;;;;;;5091042;28;20463;-76
2023/09/05 11:27:26;;;;;;;4.18;2.20;;;28.80;99.90;;;;;;5090919;28;20476;-76
2023/09/05 11:29:55;;;;;;;3.35;2.22;;;28.80;99.90;;;;;;5073764;28;20500;-76
2023/09/05 11:32:34;;;;;;;3.35;1.90;;;29.20;99.90;;;;;;5090763;28;20417;-75
2023/09/05 11:35:03;;;;;;;4.25;2.13;;;29.30;99.90;;;;;;5091121;28;20476;-75
2023/09/05 11:37:28;;;;;;;5.17;2.03;;;29.40;99.90;;;;;;5090786;28;20412;-75
2023/09/05 11:39:54;;;;;;;4.43;2.10;;;29.10;99.90;;;;;;5073985;28;20398;-75
2023/09/05 11:42:22;;;;;;;5.55;2.20;;;28.90;99.90;;;;;;5091148;28;20739;-75
2023/09/05 11:44:49;;;;;;;6.35;2.20;;;28.60;99.90;;;;;;5090762;28;20491;-74
2023/09/05 11:47:15;;;;;;;3.38;2.08;;;29.00;99.90;;;;;;5124831;28;20398;-76
2023/09/05 11:49:42;;;;;;;4.03;2.20;;;29.00;99.90;;;;;;5107874;28;20406;-76
2023/09/05 11:52:09;;;;;;;3.67;2.13;;;29.00;99.90;;;;;;5090900;28;20417;-76
2023/09/05 11:54:35;;;;;;;4.63;2.00;;;29.60;99.90;;;;;;5090831;28;20401;-75
2023/09/05 11:57:02;;;;;;;4.47;2.13;;;29.80;99.90;;;;;;5107547;28;20583;-75
2023/09/05 11:59:29;;;;;;;3.53;1.90;;;29.60;99.90;;;;;;5090849;28;20459;-75
2023/09/05 12:01:55;;;;;;;4.38;2.10;;;29.90;99.90;;;;;;5090815;28;20496;-76
2023/09/05 12:04:22;;;;;;;4.10;2.30;;;30.20;99.90;;;;;;5090968;28;20467;-76
2023/09/05 12:06:52;;;;;;;4.68;2.00;;;30.40;99.90;;;;;;5090801;28;20451;-75
2023/09/05 12:09:18;;;;;;;5.30;2.05;;;30.70;99.80;;;;;;5093618;28;20888;-75
2023/09/05 12:11:44;;;;;;;5.18;2.33;;;31.00;99.60;;;;;;5094886;28;20455;-75
2023/09/05 12:14:10;;;;;;;4.47;1.90;;;30.80;99.80;;;;;;5111798;28;20390;-75
2023/09/05 12:16:36;;;;;;;4.17;2.20;;;30.80;99.60;;;;;;5094824;28;20840;-75
2023/09/05 12:19:02;;;;;;;7.60;2.35;;;30.40;99.00;;;;;;5111543;28;20398;-76
2023/09/05 12:21:42;;;;;;;3.20;1.80;;;30.70;98.80;;;;;;5094515;28;20968;-75
2023/09/05 12:24:21;;;;;;;4.33;2.00;;;30.80;98.50;;;;;;5094484;28;20484;-76
2023/09/05 12:26:52;;;;;;;5.10;1.80;;;30.60;98.30;;;;;;5094534;28;20908;-76
2023/09/05 12:29:36;;;;;;;7.15;2.10;;;30.60;98.10;;;;;;5111456;28;20409;-76
2023/09/05 12:32:02;;;;;;;3.20;1.80;;;30.50;97.50;;;;;;5128217;27;20933;-75
2023/09/05 12:34:28;;;;;;;4.63;1.80;;;30.50;97.20;;;;;;5093763;28;20409;-75
2023/09/05 12:36:53;;;;;;;5.68;1.75;;;30.70;97.20;;;;;;5094257;28;20397;-75
2023/09/05 12:39:19;;;;;;;2.95;1.60;;;31.10;97.20;;;;;;5128312;27;20935;-75